Time;durP1;ratioP1;P1;durP2;ratioP2;P2;SDS_P1;SDS_P2;PMS_P1;PMS_P2;Temp;Humidity;BMP_temperature;BMP_pressure;BME280_temperature;BME280_humidity;BME280_pressure;Samples;Min_cycle;Max_cycle;Signal;HPM_P1;HPM_P2
2023/05/03 00:00:22;;;;;;;8.50;2.40;;;;;;;;;;6161824;23;20335;-91
2023/05/03 00:03:07;;;;;;;6.22;3.08;;;;;;;;;;6163088;23;20024;-87
2023/05/03 00:05:52;;;;;;;8.95;3.08;;;;;;;;;;6185277;23;20016;-92
2023/05/03 00:08:37;;;;;;;4.43;2.25;;;;;;;;;;6184831;23;20032;-94
2023/05/03 00:11:21;;;;;;;7.30;3.15;;;;;;;;;;6161996;23;20016;-93
2023/05/03 00:14:06;;;;;;;4.20;2.10;;;;;;;;;;6184637;23;20064;-93
2023/05/03 00:16:51;;;;;;;6.18;2.55;;;;;;;;;;6184715;23;20063;-93
2023/05/03 00:19:36;;;;;;;8.45;2.58;;;;;;;;;;6184194;23;20100;-92
2023/05/03 00:22:22;;;;;;;10.20;3.20;;;;;;;;;;6184296;23;20056;-94
2023/05/03 00:25:09;;;;;;;6.50;2.60;;;;;;;;;;6185008;23;20486;-93
2023/05/03 00:27:54;;;;;;;6.38;3.00;;;;;;;;;;6185298;23;20571;-94
2023/05/03 00:30:38;;;;;;;6.68;2.67;;;;;;;;;;6184566;23;20086;-94
2023/05/03 00:33:23;;;;;;;8.27;2.45;;;;;;;;;;6162003;23;20020;-93
2023/05/03 00:36:09;;;;;;;6.35;2.88;;;;;;;;;;6164368;23;20024;-94
2023/05/03 00:38:53;;;;;;;3.63;2.42;;;;;;;;;;6186415;23;20107;-94
2023/05/03 00:41:38;;;;;;;11.55;3.30;;;;;;;;;;6164506;23;20020;-93
2023/05/03 00:44:23;;;;;;;7.05;3.08;;;;;;;;;;6163872;23;20403;-93
2023/05/03 00:47:08;;;;;;;4.18;2.50;;;;;;;;;;6186364;23;20170;-94
2023/05/03 00:49:53;;;;;;;6.65;3.22;;;;;;;;;;6164220;23;20024;-92
2023/05/03 00:52:38;;;;;;;8.27;3.10;;;;;;;;;;6142998;23;20059;-94
2023/05/03 00:55:24;;;;;;;7.60;3.03;;;;;;;;;;6185748;23;20045;-92
2023/05/03 00:58:09;;;;;;;9.05;3.78;;;;;;;;;;6186317;23;20044;-94
2023/05/03 01:00:54;;;;;;;5.70;3.13;;;;;;;;;;6186006;23;20020;-94
2023/05/03 01:03:40;;;;;;;8.38;3.58;;;;;;;;;;6163620;23;20044;-92
2023/05/03 01:06:32;;;;;;;10.27;3.00;;;;;;;;;;6185701;23;20019;-93
2023/05/03 01:09:21;;;;;;;8.63;2.95;;;;;;;;;;6185647;23;20047;-88
2023/05/03 01:12:06;;;;;;;7.05;3.22;;;;;;;;;;6186022;23;20114;-94
2023/05/03 01:14:50;;;;;;;8.38;3.90;;;;;;;;;;6186167;23;20047;-93
2023/05/03 01:17:36;;;;;;;10.65;3.35;;;;;;;;;;6163368;23;20016;-93
2023/05/03 01:20:25;;;;;;;8.10;3.22;;;;;;;;;;6163158;23;20024;-93
2023/05/03 01:23:14;;;;;;;6.00;4.10;;;;;;;;;;6185856;23;20090;-92
2023/05/03 01:25:58;;;;;;;11.55;4.03;;;;;;;;;;6185878;23;20016;-93
2023/05/03 01:28:43;;;;;;;10.38;3.58;;;;;;;;;;6163492;23;20019;-94
2023/05/03 01:31:28;;;;;;;4.47;3.33;;;;;;;;;;6185689;23;20015;-93
2023/05/03 01:34:37;;;;;;;5.35;3.15;;;6.30;99.90;;;;;;6163634;23;20016;-94
2023/05/03 01:37:22;;;;;;;6.93;3.17;;;;;;;;;;6185607;23;20016;-93
2023/05/03 01:40:08;;;;;;;12.40;3.75;;;;;;;;;;6163690;23;20020;-93
2023/05/03 01:42:54;;;;;;;19.60;5.13;;;6.10;99.90;;;;;;6185783;23;20067;-95
2023/05/03 01:45:40;;;;;;;10.75;4.03;;;;;;;;;;6185104;23;20058;-93
2023/05/03 01:48:25;;;;;;;11.35;4.07;;;;;;;;;;6185321;23;20015;-93
2023/05/03 01:51:09;;;;;;;9.30;3.50;;;;;;;;;;6185587;23;20056;-94
2023/05/03 01:53:54;;;;;;;8.07;3.42;;;;;;;;;;6185589;23;20023;-92
2023/05/03 01:56:39;;;;;;;9.70;3.90;;;;;;;;;;6185135;23;20048;-92
2023/05/03 01:59:24;;;;;;;8.35;3.47;;;;;;;;;;6185036;23;20016;-88
2023/05/03 02:02:09;;;;;;;7.07;3.90;;;;;;;;;;6185644;23;20100;-93
2023/05/03 02:04:54;;;;;;;9.32;3.90;;;;;;;;;;6185515;23;20016;-93
2023/05/03 02:07:38;;;;;;;7.95;3.70;;;;;;;;;;6184979;23;20344;-93
2023/05/03 02:10:24;;;;;;;6.43;3.75;;;;;;;;;;6185567;23;20035;-90
2023/05/03 02:13:08;;;;;;;8.70;3.50;;;;;;;;;;6163753;23;20020;-93
2023/05/03 02:15:54;;;;;;;11.10;3.25;;;;;;;;;;6163130;23;20020;-94
2023/05/03 02:18:39;;;;;;;9.18;3.30;;;;;;;;;;6184767;23;20016;-92
2023/05/03 02:21:26;;;;;;;9.88;3.47;;;;;;;;;;6185484;23;20071;-94
2023/05/03 02:24:11;;;;;;;5.60;3.08;;;;;;;;;;6163935;23;20016;-92
2023/05/03 02:26:56;;;;;;;6.43;3.30;;;;;;;;;;6185375;23;20063;-93
2023/05/03 02:29:41;;;;;;;7.72;3.60;;;;;;;;;;6185091;23;20098;-93
2023/05/03 02:32:25;;;;;;;7.95;3.38;;;;;;;;;;6185276;23;20454;-94
2023/05/03 02:35:10;;;;;;;6.70;3.22;;;;;;;;;;6185099;23;20148;-94
2023/05/03 02:37:55;;;;;;;10.40;3.60;;;;;;;;;;6185060;23;20015;-92
2023/05/03 02:40:39;;;;;;;6.88;3.17;;;;;;;;;;6162910;23;20135;-94
2023/05/03 02:43:24;;;;;;;8.30;3.10;;;;;;;;;;6185165;23;20020;-93
2023/05/03 02:46:08;;;;;;;7.30;4.22;;;;;;;;;;6185111;23;20020;-92
2023/05/03 02:48:53;;;;;;;8.80;3.28;;;;;;;;;;6184798;23;20052;-94
2023/05/03 02:51:37;;;;;;;8.25;3.35;;;;;;;;;;6184803;23;20012;-93
2023/05/03 02:54:22;;;;;;;6.65;3.42;;;;;;;;;;6162701;23;20335;-94
2023/05/03 02:57:07;;;;;;;4.70;3.25;;;;;;;;;;6163077;23;20020;-93
2023/05/03 02:59:51;;;;;;;8.10;3.83;;;;;;;;;;6162437;23;20618;-95
2023/05/03 03:02:36;;;;;;;5.40;3.45;;;;;;;;;;6184728;23;20025;-94
2023/05/03 03:05:20;;;;;;;8.60;3.97;;;;;;;;;;6185266;23;20036;-92
2023/05/03 03:08:05;;;;;;;7.93;4.07;;;;;;;;;;6185166;23;20508;-92
2023/05/03 03:10:50;;;;;;;7.85;3.70;;;;;;;;;;6184878;23;20060;-93
2023/05/03 03:13:38;;;;;;;9.02;3.58;;;;;;;;;;6184484;23;20040;-89
2023/05/03 03:16:22;;;;;;;7.00;4.15;;;;;;;;;;6162646;23;20031;-93
2023/05/03 03:19:07;;;;;;;7.57;4.25;;;;;;;;;;6185052;23;20344;-93
2023/05/03 03:21:51;;;;;;;8.82;3.70;;;;;;;;;;6162151;23;20060;-89
2023/05/03 03:24:36;;;;;;;8.45;4.03;;;;;;;;;;6184523;23;20016;-92
2023/05/03 03:27:22;;;;;;;7.78;4.18;;;;;;;;;;6162758;23;20590;-93
2023/05/03 03:30:08;;;;;;;6.10;3.40;;;;;;;;;;6184974;23;20024;-93
2023/05/03 03:32:52;;;;;;;11.00;4.32;;;;;;;;;;6141548;23;20016;-95
2023/05/03 03:35:37;;;;;;;10.70;4.07;;;;;;;;;;6171106;23;20059;-90
2023/05/03 03:38:22;;;;;;;7.50;3.90;;;;;;;;;;6184843;23;20059;-94
2023/05/03 03:41:07;;;;;;;8.35;4.78;;;;;;;;;;6184991;23;20052;-93
2023/05/03 03:43:52;;;;;;;6.85;4.47;;;;;;;;;;6184837;23;20020;-92
2023/05/03 03:46:36;;;;;;;6.55;3.70;;;;;;;;;;6162669;23;20016;-90
2023/05/03 03:49:21;;;;;;;8.82;4.57;;;;;;;;;;6162957;23;20020;-94
2023/05/03 03:52:05;;;;;;;10.85;4.55;;;;;;;;;;6184759;23;20032;-94
2023/05/03 03:54:51;;;;;;;8.00;4.10;;;;;;;;;;6184599;23;20344;-94
2023/05/03 03:57:35;;;;;;;13.80;5.65;;;;;;;;;;6162805;23;20048;-93
2023/05/03 04:00:20;;;;;;;8.32;4.18;;;;;;;;;;6184737;23;20332;-93
2023/05/03 04:03:05;;;;;;;11.35;4.80;;;;;;;;;;6185462;23;20384;-93
2023/05/03 04:05:50;;;;;;;7.90;4.75;;;;;;;;;;6184192;23;20042;-93
2023/05/03 04:08:35;;;;;;;11.32;5.68;;;;;;;;;;6184985;23;20088;-93
2023/05/03 04:11:20;;;;;;;6.40;3.95;;;;;;;;;;6164788;23;20047;-93
2023/05/03 04:14:04;;;;;;;5.82;3.97;;;;;;;;;;6186356;23;20012;-93
2023/05/03 04:16:49;;;;;;;8.52;4.57;;;;;;;;;;6164401;23;20064;-93
2023/05/03 04:19:34;;;;;;;10.07;4.55;;;;;;;;;;6164323;23;20037;-93
2023/05/03 04:22:18;;;;;;;10.25;5.60;;;;;;;;;;6186422;23;20058;-92
2023/05/03 04:25:03;;;;;;;7.97;4.65;;;;;;;;;;6186004;23;20019;-93
2023/05/03 04:27:48;;;;;;;10.82;4.40;;;;;;;;;;6186180;23;20015;-93
2023/05/03 04:30:34;;;;;;;10.95;5.10;;;;;;;;;;6164603;23;20344;-94
2023/05/03 04:33:22;;;;;;;7.80;4.00;;;;;;;;;;6186652;23;20518;-94
2023/05/03 04:36:09;;;;;;;7.53;4.93;;;;;;;;;;6162981;23;20101;-88
2023/05/03 04:38:54;;;;;;;7.13;4.60;;;;;;;;;;6185572;23;20510;-88
2023/05/03 04:41:40;;;;;;;6.78;4.78;;;;;;;;;;6186111;23;20080;-91
2023/05/03 04:44:25;;;;;;;10.48;3.92;;;;;;;;;;6186005;23;20387;-90
2023/05/03 04:47:10;;;;;;;11.80;4.75;;;;;;;;;;6185670;23;20016;-90
2023/05/03 04:49:55;;;;;;;8.18;4.68;;;;;;;;;;6185435;23;20021;-89
2023/05/03 04:52:40;;;;;;;9.55;4.20;;;;;;;;;;6163770;23;20064;-90
2023/05/03 04:55:25;;;;;;;6.78;4.43;;;;;;;;;;6185830;23;20343;-95
2023/05/03 04:58:09;;;;;;;8.63;4.15;;;;;;;;;;6163596;23;20020;-92
2023/05/03 05:00:54;;;;;;;9.23;3.75;;;;;;;;;;6162810;23;20067;-92
2023/05/03 05:03:39;;;;;;;17.95;5.18;;;;;;;;;;6184317;23;20023;-91
2023/05/03 05:06:23;;;;;;;9.68;3.88;;;;;;;;;;6163341;23;20091;-90
2023/05/03 05:09:19;;;;;;;5.70;3.78;;;;;;;;;;6185166;23;20024;-92
2023/05/03 05:12:04;;;;;;;5.03;3.63;;;;;;;;;;6185533;23;20015;-91
2023/05/03 05:14:49;;;;;;;8.23;3.88;;;;;;;;;;6142698;23;20121;-88
2023/05/03 05:17:33;;;;;;;8.50;4.18;;;;;;;;;;6163478;23;20079;-91
2023/05/03 05:20:18;;;;;;;6.45;3.72;;;;;;;;;;6163084;23;20020;-91
2023/05/03 05:23:03;;;;;;;5.55;3.20;;;;;;;;;;6185016;23;20036;-92
2023/05/03 05:25:47;;;;;;;7.00;4.25;;;;;;;;;;6185671;23;20020;-91
2023/05/03 05:28:32;;;;;;;7.57;3.80;;;;;;;;;;6185702;23;20016;-90
2023/05/03 05:31:16;;;;;;;6.95;3.47;;;;;;;;;;6186006;23;20083;-91
2023/05/03 05:34:01;;;;;;;10.25;3.17;;;;;;;;;;6185223;23;20091;-90
2023/05/03 05:36:46;;;;;;;7.22;3.67;;;;;;;;;;6163249;23;20141;-89
2023/05/03 05:39:30;;;;;;;6.13;3.33;;;;;;;;;;6185496;23;20148;-92
2023/05/03 05:42:16;;;;;;;4.40;2.83;;;;;;;;;;6185335;23;20015;-91
2023/05/03 05:45:00;;;;;;;8.65;2.90;;;;;;;;;;6141882;23;20396;-91
2023/05/03 05:47:45;;;;;;;6.07;3.20;;;;;;;;;;6185634;23;20071;-89
2023/05/03 05:50:30;;;;;;;9.38;3.15;;;;;;;;;;6185393;23;20411;-91
2023/05/03 05:53:14;;;;;;;5.53;2.83;;;;;;;;;;6162667;23;20606;-91
2023/05/03 05:55:59;;;;;;;7.30;3.05;;;;;;;;;;6185001;23;20016;-91
2023/05/03 05:58:44;;;;;;;5.85;3.17;;;;;;;;;;6162948;23;20024;-91
2023/05/03 06:01:30;;;;;;;6.38;2.42;;;;;;;;;;6163062;23;20020;-90
2023/05/03 06:04:15;;;;;;;6.55;2.80;;;;;;;;;;6184867;23;20583;-89
2023/05/03 06:07:00;;;;;;;4.88;2.25;;;;;;;;;;6162353;23;20019;-90
2023/05/03 06:09:44;;;;;;;8.40;3.00;;;;;;;;;;6185389;23;20490;-90
2023/05/03 06:12:29;;;;;;;4.38;2.33;;;;;;;;;;6162877;23;20345;-92
2023/05/03 06:15:14;;;;;;;10.30;2.70;;;;;;;;;;6184578;23;20075;-93
2023/05/03 06:17:58;;;;;;;5.40;2.38;;;;;;;;;;6162683;23;20016;-92
2023/05/03 06:20:43;;;;;;;5.70;2.20;;;;;;;;;;6185246;23;20075;-91
2023/05/03 06:23:27;;;;;;;3.47;1.90;;;;;;;;;;6163003;23;20020;-91
2023/05/03 06:26:12;;;;;;;5.10;2.60;;;;;;;;;;6183540;23;20019;-91
2023/05/03 06:28:57;;;;;;;3.60;1.60;;;;;;;;;;6184289;23;20063;-90
2023/05/03 06:31:41;;;;;;;6.70;1.77;;;;;;;;;;6185034;23;20016;-90
2023/05/03 06:34:26;;;;;;;4.45;1.60;;;;;;;;;;6184791;23;20459;-91
2023/05/03 06:37:10;;;;;;;4.00;1.88;;;;;;;;;;6185329;23;20028;-91
2023/05/03 06:39:55;;;;;;;3.95;2.03;;;;;;;;;;6163808;23;20020;-92
2023/05/03 06:42:40;;;;;;;2.65;1.83;;;;;;;;;;6185934;23;20044;-92
2023/05/03 06:45:25;;;;;;;3.63;1.50;;;;;;;;;;6185281;23;20019;-92
2023/05/03 06:48:09;;;;;;;7.38;1.92;;;;;;;;;;6184666;23;20016;-92
2023/05/03 06:50:54;;;;;;;4.40;1.63;;;;;;;;;;6162750;23;20356;-92
2023/05/03 06:53:39;;;;;;;4.07;1.67;;;;;;;;;;6185341;23;20012;-92
2023/05/03 06:56:24;;;;;;;3.10;1.38;;;;;;;;;;6184914;23;20088;-92
2023/05/03 06:59:08;;;;;;;3.58;1.50;;;;;;;;;;6184714;23;20020;-92
2023/05/03 07:01:53;;;;;;;5.03;1.65;;;;;;;;;;6184661;23;20066;-91
2023/05/03 07:04:38;;;;;;;2.40;1.35;;;;;;;;;;6184721;23;20099;-90
2023/05/03 07:07:25;;;;;;;2.88;1.15;;;;;;;;;;6161961;23;20020;-91
2023/05/03 07:10:10;;;;;;;2.47;1.20;;;;;;;;;;6161960;23;20017;-92
2023/05/03 07:12:54;;;;;;;2.78;1.23;;;;;;;;;;6162743;23;20016;-91
2023/05/03 07:15:39;;;;;;;5.05;1.30;;;;;;;;;;6184878;23;20016;-91
2023/05/03 07:18:24;;;;;;;3.58;1.50;;;;;;;;;;6184670;23;20104;-91
2023/05/03 07:21:08;;;;;;;4.78;1.52;;;;;;;;;;6162422;23;20336;-92
2023/05/03 07:23:53;;;;;;;3.35;1.40;;;;;;;;;;6162476;23;20067;-92
2023/05/03 07:26:37;;;;;;;7.53;1.55;;;;;;;;;;6162409;23;20055;-92
2023/05/03 07:29:22;;;;;;;4.25;1.20;;;;;;;;;;6162005;23;20398;-91
2023/05/03 07:32:06;;;;;;;3.15;1.10;;;;;;;;;;6184246;23;20051;-90
2023/05/03 07:34:51;;;;;;;5.47;1.38;;;;;;;;;;6184099;23;20030;-91
2023/05/03 07:37:37;;;;;;;5.68;1.40;;;;;;;;;;6162359;23;20016;-89
2023/05/03 07:40:21;;;;;;;4.22;1.70;;;;;;;;;;6184027;23;20087;-90
2023/05/03 07:43:10;;;;;;;7.38;1.50;;;;;;;;;;6162418;23;20023;-88
2023/05/03 07:45:55;;;;;;;3.88;1.40;;;;;;;;;;6186402;23;20016;-90
2023/05/03 07:48:40;;;;;;;4.38;1.30;;;;;;;;;;6164219;23;20452;-90
2023/05/03 07:51:25;;;;;;;2.25;1.30;;;;;;;;;;6186110;23;20336;-90
2023/05/03 07:54:10;;;;;;;5.18;1.40;;;;;;;;;;6186135;23;20097;-86
2023/05/03 07:56:54;;;;;;;5.47;1.60;;;;;;;;;;6186458;23;20016;-91
2023/05/03 07:59:39;;;;;;;3.95;1.48;;;;;;;;;;6164362;23;20096;-90
2023/05/03 08:02:24;;;;;;;3.78;1.42;;;;;;;;;;6185960;23;20421;-89
2023/05/03 08:05:10;;;;;;;4.22;1.42;;;;;;;;;;6186457;23;20060;-91
2023/05/03 08:07:55;;;;;;;4.00;1.50;;;;;;;;;;6186394;23;20020;-91
2023/05/03 08:10:40;;;;;;;3.33;1.20;;;;;;;;;;6164105;23;20020;-91
2023/05/03 08:13:24;;;;;;;4.13;1.20;;;;;;;;;;6185884;23;20443;-91
2023/05/03 08:16:09;;;;;;;2.35;1.27;;;;;;;;;;6186356;23;20015;-92
2023/05/03 08:18:54;;;;;;;2.30;0.98;;;;;;;;;;6164147;23;20136;-91
2023/05/03 08:21:38;;;;;;;4.40;2.03;;;;;;;;;;6164168;23;20024;-91
2023/05/03 08:24:23;;;;;;;2.92;1.20;;;;;;;;;;6185757;23;20028;-90
2023/05/03 08:27:08;;;;;;;2.63;1.30;;;;;;;;;;6163875;23;20366;-91
2023/05/03 08:29:53;;;;;;;3.45;1.50;;;;;;;;;;6186115;23;20051;-90
2023/05/03 08:32:38;;;;;;;3.80;1.42;;;;;;;;;;6185567;23;20071;-91
2023/05/03 08:35:22;;;;;;;4.47;1.00;;;;;;;;;;6185416;23;20089;-90
2023/05/03 08:38:07;;;;;;;3.80;1.50;;;;;;;;;;6163962;23;20031;-91
2023/05/03 08:40:53;;;;;;;3.75;1.38;;;;;;;;;;6185996;23;20096;-89
2023/05/03 08:43:42;;;;;;;5.90;1.20;;;;;;;;;;6185532;23;20040;-91
2023/05/03 08:46:27;;;;;;;2.95;1.10;;;;;;;;;;6185530;23;20059;-89
2023/05/03 08:49:12;;;;;;;4.18;1.10;;;;;;;;;;6163791;23;20462;-95
2023/05/03 08:51:57;;;;;;;6.45;1.13;;;;;;;;;;6185950;23;20040;-91
2023/05/03 08:54:42;;;;;;;3.75;1.40;;;;;;;;;;6185782;23;20063;-93
2023/05/03 08:57:27;;;;;;;3.33;1.20;;;;;;;;;;6185489;23;20020;-92
2023/05/03 09:00:12;;;;;;;3.78;1.20;;;;;;;;;;6185993;23;20047;-92
2023/05/03 09:02:56;;;;;;;2.65;1.10;;;;;;;;;;6186009;23;20020;-92
2023/05/03 09:05:43;;;;;;;2.80;1.23;;;;;;;;;;6163133;23;20092;-92
2023/05/03 09:08:27;;;;;;;4.30;1.88;;;;;;;;;;6185329;23;20051;-92
2023/05/03 09:11:22;;;;;;;5.05;1.30;;;;;;;;;;6185914;23;20501;-92
2023/05/03 09:14:08;;;;;;;3.38;1.30;;;;;;;;;;6185742;23;20016;-92
2023/05/03 09:16:53;;;;;;;1.65;0.98;;;;;;;;;;6186575;23;20016;-93
2023/05/03 09:19:55;;;;;;;7.72;1.70;;;;;;;;;;6163218;23;20060;-92
2023/05/03 09:22:50;;;;;;;2.92;1.48;;;;;;;;;;6163157;23;20020;-90
2023/05/03 09:25:44;;;;;;;8.80;1.63;;;;;;;;;;6185238;23;20024;-91
2023/05/03 09:28:29;;;;;;;2.05;1.40;;;;;;;;;;6185260;23;20016;-93
2023/05/03 09:31:14;;;;;;;6.68;2.42;;;;;;;;;;6185461;23;20059;-93
2023/05/03 09:33:58;;;;;;;2.88;1.30;;;;;;;;;;6163566;23;20052;-93
2023/05/03 09:36:46;;;;;;;4.63;1.55;;;;;;;;;;6185421;23;20040;-92
2023/05/03 09:39:31;;;;;;;6.18;1.40;;;;;;;;;;6185170;23;20052;-92
2023/05/03 09:42:18;;;;;;;5.63;1.42;;;;;;;;;;6185644;23;20392;-93
2023/05/03 09:45:03;;;;;;;5.10;1.50;;;;;;;;;;6185442;23;20048;-91
2023/05/03 09:47:52;;;;;;;5.50;1.80;;;;;;;;;;6162695;23;20020;-91
2023/05/03 09:50:37;;;;;;;5.10;1.45;;;;;;;;;;6184967;23;20064;-92
2023/05/03 09:53:22;;;;;;;4.20;1.70;;;;;;;;;;6185581;23;20478;-92
2023/05/03 09:56:08;;;;;;;4.18;1.60;;;;;;;;;;6185446;23;20506;-93
2023/05/03 09:58:53;;;;;;;2.38;1.30;;;;;;;;;;6185588;23;20060;-91
2023/05/03 10:01:38;;;;;;;5.70;1.48;;;;;;;;;;6162643;23;20095;-93
2023/05/03 10:04:25;;;;;;;3.75;1.70;;;;;;;;;;6163068;23;20012;-92
2023/05/03 10:07:12;;;;;;;3.60;2.22;;;;;;;;;;6162661;23;20012;-93
2023/05/03 10:09:58;;;;;;;4.78;1.58;;;;;;;;;;6185388;23;20062;-91
2023/05/03 10:12:46;;;;;;;5.63;1.58;;;;;;;;;;6184782;23;20016;-91
2023/05/03 10:15:31;;;;;;;3.90;1.75;;;;;;;;;;6184705;23;20012;-91
2023/05/03 10:18:18;;;;;;;5.75;2.08;;;;;;;;;;6185200;23;20019;-91
2023/05/03 10:21:13;;;;;;;6.70;1.83;;;;;;;;;;6184997;23;20019;-92
2023/05/03 10:24:14;;;;;;;4.50;1.80;;;;;;;;;;6184932;23;20067;-90
2023/05/03 10:27:00;;;;;;;3.67;1.80;;;;;;;;;;6189502;23;20016;-92
2023/05/03 10:29:47;;;;;;;4.93;1.40;;;;;;;;;;6189406;23;20395;-91
2023/05/03 10:32:38;;;;;;;3.03;1.65;;;;;;;;;;6142187;23;20092;-90
2023/05/03 10:35:26;;;;;;;4.18;1.52;;;14.20;89.50;;;;;;6184963;23;20024;-91
2023/05/03 10:38:21;;;;;;;4.22;1.90;;;;;;;;;;6162657;23;20016;-93
2023/05/03 10:41:06;;;;;;;3.85;1.65;;;;;;;;;;6162749;23;20343;-93
2023/05/03 10:43:51;;;;;;;6.75;1.63;;;;;;;;;;6184859;23;20067;-93
2023/05/03 10:46:37;;;;;;;3.47;1.55;;;;;;;;;;6141691;23;20067;-93
2023/05/03 10:49:23;;;;;;;3.28;1.55;;;;;;;;;;6162697;23;20083;-93
2023/05/03 10:52:38;;;;;;;2.97;1.67;;;13.90;85.00;;;;;;6184714;23;20181;-93
2023/05/03 10:55:23;;;;;;;4.10;1.42;;;;;;;;;;6162335;23;20088;-94
2023/05/03 10:58:10;;;;;;;7.63;1.98;;;;;;;;;;6184126;23;20016;-93
2023/05/03 11:00:55;;;;;;;4.13;2.05;;;;;;;;;;6162276;23;20339;-93
2023/05/03 11:04:12;;;;;;;4.95;2.35;;;14.40;90.10;;;;;;6184382;23;20024;-92
2023/05/03 11:07:00;;;;;;;2.80;1.65;;;;;;;;;;6162230;23;20059;-92
2023/05/03 11:09:47;;;;;;;3.75;2.00;;;;;;;;;;6184264;23;20466;-92
2023/05/03 11:12:35;;;;;;;3.55;2.00;;;;;;;;;;6184765;23;20515;-93
2023/05/03 11:15:20;;;;;;;3.80;1.80;;;;;;;;;;6162006;23;20075;-92
2023/05/03 11:18:05;;;;;;;7.90;2.35;;;;;;;;;;6140769;23;20023;-92
2023/05/03 11:20:59;;;;;;;8.25;1.70;;;;;;;;;;6181530;23;20015;-88
2023/05/03 11:23:47;;;;;;;5.28;1.60;;;;;;;;;;6182831;23;20024;-90
2023/05/03 11:26:35;;;;;;;5.90;1.70;;;;;;;;;;6183224;23;20036;-93
2023/05/03 11:29:20;;;;;;;4.78;1.60;;;;;;;;;;6183182;23;20015;-91
2023/05/03 11:32:09;;;;;;;4.85;1.80;;;;;;;;;;6183224;23;20043;-91
2023/05/03 11:35:01;;;;;;;5.97;2.85;;;;;;;;;;6185356;23;20078;-93
2023/05/03 11:37:46;;;;;;;5.85;1.95;;;;;;;;;;6192202;23;20024;-95
2023/05/03 11:43:53;;;;;;;5.82;1.77;;;;;;;;;;6214544;23;20339;-93
2023/05/03 11:46:38;;;;;;;5.72;2.25;;;;;;;;;;6214624;23;20047;-94
2023/05/03 11:49:23;;;;;;;7.38;2.22;;;;;;;;;;6214507;23;20051;-93
2023/05/03 11:52:08;;;;;;;4.57;1.90;;;;;;;;;;6214479;23;20011;-92
2023/05/03 11:54:53;;;;;;;13.18;4.18;;;;;;;;;;6214137;23;20015;-91
2023/05/03 11:57:38;;;;;;;5.47;1.90;;;;;;;;;;6191761;23;20340;-90
2023/05/03 12:00:23;;;;;;;5.15;2.05;;;;;;;;;;6214216;23;20020;-92
2023/05/03 12:03:09;;;;;;;5.20;2.45;;;;;;;;;;6192174;23;20135;-90
2023/05/03 12:05:55;;;;;;;11.65;3.80;;;;;;;;;;6191628;23;20402;-94
2023/05/03 12:08:40;;;;;;;4.68;1.70;;;;;;;;;;6192141;23;20016;-92
2023/05/03 12:11:25;;;;;;;4.60;2.30;;;;;;;;;;6214629;23;20020;-92
2023/05/03 12:14:09;;;;;;;4.93;1.95;;;;;;;;;;6192131;23;20070;-92
2023/05/03 12:16:54;;;;;;;6.97;2.10;;;;;;;;;;6214131;23;20016;-92
2023/05/03 12:19:39;;;;;;;4.35;1.85;;;;;;;;;;6214325;23;20035;-91
2023/05/03 12:22:26;;;;;;;4.88;1.83;;;;;;;;;;6214762;23;20058;-93
2023/05/03 12:25:11;;;;;;;5.35;1.58;;;;;;;;;;6214911;23;20055;-92
2023/05/03 12:27:56;;;;;;;3.47;1.65;;;;;;;;;;6214214;23;20020;-91
2023/05/03 12:30:41;;;;;;;7.75;2.30;;;;;;;;;;6215163;23;20047;-94
2023/05/03 12:33:26;;;;;;;3.03;1.88;;;;;;;;;;6194072;23;20058;-93
2023/05/03 12:36:11;;;;;;;5.60;1.60;;;;;;;;;;6179431;23;20056;-92
2023/05/03 12:38:55;;;;;;;4.53;1.60;;;;;;;;;;6185943;23;20012;-92
2023/05/03 12:41:39;;;;;;;8.65;1.75;;;;;;;;;;6164109;23;20517;-94
2023/05/03 12:44:24;;;;;;;5.85;1.80;;;;;;;;;;6185902;23;20024;-93
2023/05/03 12:47:08;;;;;;;4.82;1.60;;;;;;;;;;6185647;23;20080;-93
2023/05/03 12:49:53;;;;;;;5.93;1.90;;;;;;;;;;6163582;23;20352;-93
2023/05/03 12:52:38;;;;;;;3.28;1.85;;;;;;;;;;6186237;23;20020;-94
2023/05/03 12:55:22;;;;;;;3.60;1.75;;;;;;;;;;6186262;23;20071;-91
2023/05/03 12:58:07;;;;;;;6.70;1.98;;;;;;;;;;6163372;23;20532;-93
2023/05/03 13:00:52;;;;;;;3.50;1.70;;;;;;;;;;6142825;23;20040;-91
2023/05/03 13:03:37;;;;;;;5.28;1.98;;;;;;;;;;6186152;23;20067;-92
2023/05/03 13:06:22;;;;;;;3.72;1.63;;;;;;;;;;6186140;23;20032;-91
2023/05/03 13:09:07;;;;;;;4.15;2.20;;;;;;;;;;6163386;23;20015;-93
2023/05/03 13:11:51;;;;;;;4.03;1.90;;;;;;;;;;6163716;23;20107;-87
2023/05/03 13:14:36;;;;;;;4.10;1.90;;;;;;;;;;6143465;23;20063;-91
2023/05/03 13:17:21;;;;;;;6.40;2.00;;;;;;;;;;6186212;23;20466;-92
2023/05/03 13:20:07;;;;;;;5.65;2.00;;;;;;;;;;6164427;23;20124;-91
2023/05/03 13:22:51;;;;;;;4.07;2.05;;;;;;;;;;6187785;23;20103;-90
2023/05/03 13:25:39;;;;;;;3.55;2.03;;;;;;;;;;6186031;23;20020;-91
2023/05/03 13:28:23;;;;;;;3.90;1.88;;;;;;;;;;6185844;23;20015;-91
2023/05/03 13:31:10;;;;;;;4.85;2.05;;;;;;;;;;6185316;23;20070;-91
2023/05/03 13:33:56;;;;;;;3.72;2.00;;;;;;;;;;6185416;23;20062;-89
2023/05/03 13:36:40;;;;;;;6.05;2.25;;;;;;;;;;6186239;23;20345;-93
2023/05/03 13:39:25;;;;;;;5.07;1.98;;;;;;;;;;6164005;23;20047;-92
2023/05/03 13:42:09;;;;;;;3.70;2.17;;;;;;;;;;6184943;23;20068;-92
2023/05/03 13:44:54;;;;;;;6.05;2.03;;;;;;;;;;6185507;23;20498;-87
2023/05/03 13:47:39;;;;;;;4.88;2.03;;;;;;;;;;6185742;23;20019;-90
2023/05/03 13:50:24;;;;;;;6.28;2.25;;;;;;;;;;6185877;23;20052;-92
2023/05/03 13:53:09;;;;;;;6.22;2.42;;;;;;;;;;6162928;23;20495;-90
2023/05/03 13:55:56;;;;;;;5.78;2.17;;;;;;;;;;6185827;23;20097;-89
2023/05/03 13:58:41;;;;;;;3.42;2.13;;;;;;;;;;6184928;23;20076;-90
2023/05/03 14:01:26;;;;;;;4.38;2.33;;;;;;;;;;6162337;23;20020;-90
2023/05/03 14:04:10;;;;;;;5.93;2.53;;;;;;;;;;6184918;23;20071;-90
2023/05/03 14:06:55;;;;;;;6.80;2.50;;;;;;;;;;6162988;23;20121;-90
2023/05/03 14:09:40;;;;;;;5.05;2.40;;;;;;;;;;6185954;23;20446;-91
2023/05/03 14:12:27;;;;;;;5.05;2.60;;;;;;;;;;6185843;23;20020;-91
2023/05/03 14:15:13;;;;;;;6.28;2.28;;;;;;;;;;6185063;23;20071;-91
2023/05/03 14:17:58;;;;;;;5.07;2.20;;;;;;;;;;6185133;23;20459;-87
2023/05/03 14:20:43;;;;;;;6.22;2.28;;;;;;;;;;6185423;23;20024;-90
2023/05/03 14:23:27;;;;;;;3.60;2.20;;;;;;;;;;6185455;23;20109;-90
2023/05/03 14:26:12;;;;;;;5.43;2.55;;;;;;;;;;6184930;23;20052;-91
2023/05/03 14:28:58;;;;;;;8.38;2.42;;;;;;;;;;6185310;23;20079;-90
2023/05/03 14:31:43;;;;;;;5.10;2.45;;;;;;;;;;6185067;23;20020;-90
2023/05/03 14:34:27;;;;;;;6.15;2.35;;;;;;;;;;6186667;23;20344;-91
2023/05/03 14:37:12;;;;;;;3.72;2.13;;;;;;;;;;6189072;23;20087;-91
2023/05/03 14:39:57;;;;;;;5.10;2.80;;;;;;;;;;6185252;23;20063;-90
2023/05/03 14:42:42;;;;;;;6.18;2.20;;;;;;;;;;6163352;23;20459;-91
2023/05/03 14:45:26;;;;;;;3.85;2.17;;;;;;;;;;6185025;23;20083;-90
2023/05/03 14:48:11;;;;;;;7.60;3.00;;;;;;;;;;6162341;23;20344;-91
2023/05/03 14:50:55;;;;;;;5.25;2.50;;;;;;;;;;6185102;23;20024;-91
2023/05/03 14:53:40;;;;;;;4.28;2.15;;;;;;;;;;6162717;23;20052;-91
2023/05/03 14:56:24;;;;;;;4.20;2.58;;;;;;;;;;6184615;23;20031;-91
2023/05/03 14:59:09;;;;;;;6.25;2.33;;;;;;;;;;6184466;23;20067;-90
2023/05/03 15:01:53;;;;;;;4.30;2.83;;;;;;;;;;6162763;23;20020;-89
2023/05/03 15:04:38;;;;;;;3.50;2.50;;;;;;;;;;6162489;23;20016;-89
2023/05/03 15:07:23;;;;;;;6.43;2.20;;;;;;;;;;6184315;23;20012;-90
2023/05/03 15:10:08;;;;;;;4.78;2.33;;;;;;;;;;6184162;23;20020;-90
2023/05/03 15:12:53;;;;;;;6.25;2.88;;;;;;;;;;6184674;23;20012;-89
2023/05/03 15:15:38;;;;;;;6.50;2.67;;;;;;;;;;6184527;23;20389;-88
2023/05/03 15:18:23;;;;;;;5.60;2.50;;;;;;;;;;6184157;23;20498;-88
2023/05/03 15:21:07;;;;;;;6.93;2.17;;;;;;;;;;6183821;23;20019;-87
2023/05/03 15:23:53;;;;;;;5.32;2.17;;;;;;;;;;6162708;23;20052;-90
2023/05/03 15:26:37;;;;;;;5.55;2.70;;;;;;;;;;6184555;23;20012;-90
2023/05/03 15:29:22;;;;;;;5.10;2.40;;;;;;;;;;6184200;23;20085;-91
2023/05/03 15:32:06;;;;;;;4.75;2.30;;;;;;;;;;6184333;23;20343;-86
2023/05/03 15:34:51;;;;;;;6.93;2.15;;;;;;;;;;6162303;23;20498;-90
2023/05/03 15:37:36;;;;;;;8.10;2.60;;;;;;;;;;6184921;23;20075;-89
2023/05/03 15:40:24;;;;;;;7.68;2.58;;;;;;;;;;6161655;23;20071;-90
2023/05/03 15:43:09;;;;;;;4.05;2.28;;;;;;;;;;6183789;23;20403;-87
2023/05/03 15:45:54;;;;;;;8.63;2.30;;;;;;;;;;6184479;23;20068;-91
2023/05/03 15:48:39;;;;;;;4.90;2.70;;;;;;;;;;6162724;23;20020;-93
2023/05/03 15:51:24;;;;;;;5.15;2.60;;;;;;;;;;6161773;23;20076;-90
2023/05/03 15:54:08;;;;;;;7.40;2.97;;;;;;;;;;6162004;23;20459;-89
2023/05/03 15:56:54;;;;;;;6.65;2.72;;;;;;;;;;6184172;23;20064;-92
2023/05/03 15:59:39;;;;;;;8.05;2.58;;;;;;;;;;6162218;23;20031;-92
2023/05/03 16:02:24;;;;;;;5.18;2.45;;;;;;;;;;6184075;23;20348;-92
2023/05/03 16:05:09;;;;;;;8.25;2.40;;;;;;;;;;6184834;23;20016;-92
2023/05/03 16:07:55;;;;;;;7.32;2.95;;;;;;;;;;6186681;23;20020;-92
2023/05/03 16:10:40;;;;;;;8.20;3.00;;;;;;;;;;6186504;23;20016;-91
2023/05/03 16:13:25;;;;;;;4.45;2.17;;;;;;;;;;6143100;23;20020;-91
2023/05/03 16:16:09;;;;;;;4.38;3.10;;;;;;;;;;6186356;23;20450;-91
2023/05/03 16:18:54;;;;;;;5.70;2.50;;;;;;;;;;6164473;23;20070;-92
2023/05/03 16:21:38;;;;;;;4.90;2.38;;;;;;;;;;6162284;23;20375;-89
2023/05/03 16:24:23;;;;;;;5.82;2.55;;;;;;;;;;6185396;23;20067;-92
2023/05/03 16:27:08;;;;;;;6.32;2.85;;;;;;;;;;6185912;23;20020;-92
2023/05/03 16:29:53;;;;;;;6.70;2.88;;;;;;;;;;6186215;23;20088;-93
2023/05/03 16:32:38;;;;;;;5.07;3.03;;;;;;;;;;6163536;23;20015;-94